sensor_id;sensor_type;location;lat;lon;timestamp;P1;durP1;ratioP1;P2;durP2;ratioP2
71965;SDS011;59836;52.132;5.442;2024-01-30T00:01:31;11.02;;;7.50;;
71965;SDS011;59836;52.132;5.442;2024-01-30T00:03:57;11.63;;;7.70;;
71965;SDS011;59836;52.132;5.442;2024-01-30T00:06:24;11.73;;;7.07;;
71965;SDS011;59836;52.132;5.442;2024-01-30T00:08:50;11.50;;;7.38;;
71965;SDS011;59836;52.132;5.442;2024-01-30T00:11:17;11.53;;;7.27;;
71965;SDS011;59836;52.132;5.442;2024-01-30T00:13:43;10.55;;;7.00;;
71965;SDS011;59836;52.132;5.442;2024-01-30T00:16:22;11.00;;;7.82;;
71965;SDS011;59836;52.132;5.442;2024-01-30T00:18:53;11.68;;;7.10;;
71965;SDS011;59836;52.132;5.442;2024-01-30T00:21:20;11.38;;;7.07;;
71965;SDS011;59836;52.132;5.442;2024-01-30T00:23:47;13.40;;;7.27;;
71965;SDS011;59836;52.132;5.442;2024-01-30T00:26:13;10.93;;;6.95;;
71965;SDS011;59836;52.132;5.442;2024-01-30T00:28:43;13.20;;;7.90;;
71965;SDS011;59836;52.132;5.442;2024-01-30T00:31:10;9.82;;;6.22;;
71965;SDS011;59836;52.132;5.442;2024-01-30T00:33:40;13.50;;;7.40;;
71965;SDS011;59836;52.132;5.442;2024-01-30T00:36:08;9.63;;;6.63;;
71965;SDS011;59836;52.132;5.442;2024-01-30T00:38:35;12.98;;;7.38;;
71965;SDS011;59836;52.132;5.442;2024-01-30T00:41:02;10.35;;;7.22;;
71965;SDS011;59836;52.132;5.442;2024-01-30T00:43:28;10.70;;;6.88;;
71965;SDS011;59836;52.132;5.442;2024-01-30T00:45:55;11.60;;;6.25;;
71965;SDS011;59836;52.132;5.442;2024-01-30T00:48:22;12.23;;;7.13;;
71965;SDS011;59836;52.132;5.442;2024-01-30T00:50:48;9.77;;;6.30;;
71965;SDS011;59836;52.132;5.442;2024-01-30T00:53:15;11.65;;;6.50;;
71965;SDS011;59836;52.132;5.442;2024-01-30T00:55:43;10.75;;;6.38;;
71965;SDS011;59836;52.132;5.442;2024-01-30T00:58:09;14.68;;;7.75;;
71965;SDS011;59836;52.132;5.442;2024-01-30T01:00:36;10.40;;;6.87;;
71965;SDS011;59836;52.132;5.442;2024-01-30T01:03:03;9.88;;;5.93;;
71965;SDS011;59836;52.132;5.442;2024-01-30T01:05:30;10.57;;;6.57;;
71965;SDS011;59836;52.132;5.442;2024-01-30T01:07:56;10.30;;;6.75;;
71965;SDS011;59836;52.132;5.442;2024-01-30T01:10:23;11.02;;;7.20;;
71965;SDS011;59836;52.132;5.442;2024-01-30T01:12:49;9.13;;;6.23;;
71965;SDS011;59836;52.132;5.442;2024-01-30T01:15:16;11.70;;;6.25;;
71965;SDS011;59836;52.132;5.442;2024-01-30T01:17:43;10.60;;;6.47;;
71965;SDS011;59836;52.132;5.442;2024-01-30T01:20:09;9.27;;;6.07;;
71965;SDS011;59836;52.132;5.442;2024-01-30T01:22:37;8.50;;;6.22;;
71965;SDS011;59836;52.132;5.442;2024-01-30T01:25:05;10.30;;;5.97;;
71965;SDS011;59836;52.132;5.442;2024-01-30T01:27:36;10.30;;;6.40;;
71965;SDS011;59836;52.132;5.442;2024-01-30T01:30:08;9.02;;;6.60;;
71965;SDS011;59836;52.132;5.442;2024-01-30T01:32:36;10.25;;;6.65;;
71965;SDS011;59836;52.132;5.442;2024-01-30T01:35:03;10.30;;;6.47;;
71965;SDS011;59836;52.132;5.442;2024-01-30T01:37:32;10.07;;;6.70;;
71965;SDS011;59836;52.132;5.442;2024-01-30T01:39:59;8.60;;;5.95;;
71965;SDS011;59836;52.132;5.442;2024-01-30T01:42:26;8.27;;;5.97;;
71965;SDS011;59836;52.132;5.442;2024-01-30T01:44:52;9.75;;;6.40;;
71965;SDS011;59836;52.132;5.442;2024-01-30T01:47:19;8.98;;;5.82;;
71965;SDS011;59836;52.132;5.442;2024-01-30T01:49:46;10.00;;;5.83;;
71965;SDS011;59836;52.132;5.442;2024-01-30T01:52:13;11.23;;;6.22;;
71965;SDS011;59836;52.132;5.442;2024-01-30T01:54:40;13.13;;;7.07;;
71965;SDS011;59836;52.132;5.442;2024-01-30T01:57:07;7.68;;;5.63;;
71965;SDS011;59836;52.132;5.442;2024-01-30T01:59:34;9.18;;;5.47;;
71965;SDS011;59836;52.132;5.442;2024-01-30T02:02:00;10.03;;;5.87;;
71965;SDS011;59836;52.132;5.442;2024-01-30T02:04:28;7.88;;;5.55;;
71965;SDS011;59836;52.132;5.442;2024-01-30T02:06:55;8.98;;;6.40;;
71965;SDS011;59836;52.132;5.442;2024-01-30T02:09:22;9.18;;;6.00;;
71965;SDS011;59836;52.132;5.442;2024-01-30T02:11:49;8.38;;;5.93;;
71965;SDS011;59836;52.132;5.442;2024-01-30T02:14:15;8.70;;;5.43;;
71965;SDS011;59836;52.132;5.442;2024-01-30T02:16:42;9.00;;;5.55;;
71965;SDS011;59836;52.132;5.442;2024-01-30T02:19:08;7.95;;;5.18;;
71965;SDS011;59836;52.132;5.442;2024-01-30T02:21:35;8.38;;;5.38;;
71965;SDS011;59836;52.132;5.442;2024-01-30T02:24:01;10.45;;;5.80;;
71965;SDS011;59836;52.132;5.442;2024-01-30T02:26:29;9.80;;;5.17;;
71965;SDS011;59836;52.132;5.442;2024-01-30T02:28:56;7.95;;;5.43;;
71965;SDS011;59836;52.132;5.442;2024-01-30T02:31:22;9.93;;;5.68;;
71965;SDS011;59836;52.132;5.442;2024-01-30T02:33:51;10.77;;;6.47;;
71965;SDS011;59836;52.132;5.442;2024-01-30T02:36:18;10.05;;;5.57;;
71965;SDS011;59836;52.132;5.442;2024-01-30T02:38:45;9.13;;;5.30;;
71965;SDS011;59836;52.132;5.442;2024-01-30T02:41:12;10.40;;;5.90;;
71965;SDS011;59836;52.132;5.442;2024-01-30T02:43:39;9.50;;;5.78;;
71965;SDS011;59836;52.132;5.442;2024-01-30T02:46:06;7.18;;;5.32;;
71965;SDS011;59836;52.132;5.442;2024-01-30T02:51:13;7.67;;;5.53;;
71965;SDS011;59836;52.132;5.442;2024-01-30T02:53:39;8.43;;;4.97;;
71965;SDS011;59836;52.132;5.442;2024-01-30T02:56:06;8.23;;;5.63;;
71965;SDS011;59836;52.132;5.442;2024-01-30T02:58:36;10.55;;;5.63;;
71965;SDS011;59836;52.132;5.442;2024-01-30T03:01:03;12.10;;;6.80;;
71965;SDS011;59836;52.132;5.442;2024-01-30T03:03:30;10.70;;;6.47;;
71965;SDS011;59836;52.132;5.442;2024-01-30T03:05:56;9.60;;;6.78;;
71965;SDS011;59836;52.132;5.442;2024-01-30T03:08:23;11.52;;;6.72;;
71965;SDS011;59836;52.132;5.442;2024-01-30T03:10:50;11.68;;;7.65;;
71965;SDS011;59836;52.132;5.442;2024-01-30T03:13:16;13.95;;;7.90;;
71965;SDS011;59836;52.132;5.442;2024-01-30T03:15:43;14.83;;;8.07;;
71965;SDS011;59836;52.132;5.442;2024-01-30T03:18:09;15.27;;;9.50;;
71965;SDS011;59836;52.132;5.442;2024-01-30T03:20:36;15.32;;;8.63;;
71965;SDS011;59836;52.132;5.442;2024-01-30T03:23:02;14.05;;;8.60;;
71965;SDS011;59836;52.132;5.442;2024-01-30T03:25:29;14.80;;;8.70;;
71965;SDS011;59836;52.132;5.442;2024-01-30T03:27:56;15.73;;;8.33;;
71965;SDS011;59836;52.132;5.442;2024-01-30T03:30:22;16.30;;;8.77;;
71965;SDS011;59836;52.132;5.442;2024-01-30T03:32:49;13.65;;;8.45;;
71965;SDS011;59836;52.132;5.442;2024-01-30T03:35:16;14.40;;;8.20;;
71965;SDS011;59836;52.132;5.442;2024-01-30T03:37:45;14.35;;;8.10;;
71965;SDS011;59836;52.132;5.442;2024-01-30T03:40:12;13.83;;;8.03;;
71965;SDS011;59836;52.132;5.442;2024-01-30T03:42:39;13.75;;;7.78;;
71965;SDS011;59836;52.132;5.442;2024-01-30T03:45:06;13.85;;;8.13;;
71965;SDS011;59836;52.132;5.442;2024-01-30T03:47:33;11.40;;;7.53;;
71965;SDS011;59836;52.132;5.442;2024-01-30T03:49:59;13.00;;;6.68;;
71965;SDS011;59836;52.132;5.442;2024-01-30T03:52:26;12.80;;;6.97;;
71965;SDS011;59836;52.132;5.442;2024-01-30T03:54:53;12.18;;;6.75;;
71965;SDS011;59836;52.132;5.442;2024-01-30T03:57:19;10.80;;;7.03;;
71965;SDS011;59836;52.132;5.442;2024-01-30T03:59:46;10.02;;;5.80;;
71965;SDS011;59836;52.132;5.442;2024-01-30T04:02:12;9.90;;;5.93;;
71965;SDS011;59836;52.132;5.442;2024-01-30T04:04:39;9.20;;;5.60;;
71965;SDS011;59836;52.132;5.442;2024-01-30T04:07:06;10.07;;;5.97;;
71965;SDS011;59836;52.132;5.442;2024-01-30T04:09:33;10.90;;;5.43;;
71965;SDS011;59836;52.132;5.442;2024-01-30T04:11:59;7.75;;;5.50;;
71965;SDS011;59836;52.132;5.442;2024-01-30T04:14:26;8.55;;;5.68;;
71965;SDS011;59836;52.132;5.442;2024-01-30T04:16:52;10.27;;;5.33;;
71965;SDS011;59836;52.132;5.442;2024-01-30T04:19:19;7.78;;;4.80;;
71965;SDS011;59836;52.132;5.442;2024-01-30T04:21:46;7.93;;;5.35;;
71965;SDS011;59836;52.132;5.442;2024-01-30T04:24:13;8.18;;;4.78;;
71965;SDS011;59836;52.132;5.442;2024-01-30T04:26:39;8.30;;;4.95;;
71965;SDS011;59836;52.132;5.442;2024-01-30T04:29:06;9.37;;;4.77;;
71965;SDS011;59836;52.132;5.442;2024-01-30T04:31:32;6.30;;;4.55;;
71965;SDS011;59836;52.132;5.442;2024-01-30T04:33:59;10.75;;;5.53;;
71965;SDS011;59836;52.132;5.442;2024-01-30T04:36:26;6.65;;;4.35;;
71965;SDS011;59836;52.132;5.442;2024-01-30T04:38:52;6.90;;;4.35;;
71965;SDS011;59836;52.132;5.442;2024-01-30T04:41:19;8.10;;;4.40;;
71965;SDS011;59836;52.132;5.442;2024-01-30T04:43:45;10.25;;;4.97;;
71965;SDS011;59836;52.132;5.442;2024-01-30T04:46:12;8.25;;;4.82;;
71965;SDS011;59836;52.132;5.442;2024-01-30T04:48:39;7.07;;;5.22;;
71965;SDS011;59836;52.132;5.442;2024-01-30T04:51:05;6.32;;;4.78;;
71965;SDS011;59836;52.132;5.442;2024-01-30T04:53:32;9.53;;;5.30;;
71965;SDS011;59836;52.132;5.442;2024-01-30T04:55:58;8.35;;;4.53;;
71965;SDS011;59836;52.132;5.442;2024-01-30T04:58:25;9.98;;;5.63;;
71965;SDS011;59836;52.132;5.442;2024-01-30T05:00:52;6.63;;;4.20;;
71965;SDS011;59836;52.132;5.442;2024-01-30T05:03:19;7.60;;;4.90;;
71965;SDS011;59836;52.132;5.442;2024-01-30T05:05:46;8.33;;;5.00;;
71965;SDS011;59836;52.132;5.442;2024-01-30T05:08:13;8.25;;;4.72;;
71965;SDS011;59836;52.132;5.442;2024-01-30T05:10:39;7.85;;;5.70;;
71965;SDS011;59836;52.132;5.442;2024-01-30T05:13:06;7.95;;;5.07;;
71965;SDS011;59836;52.132;5.442;2024-01-30T05:15:33;7.03;;;5.18;;
71965;SDS011;59836;52.132;5.442;2024-01-30T05:17:59;6.87;;;4.93;;
71965;SDS011;59836;52.132;5.442;2024-01-30T05:20:26;9.18;;;5.30;;
71965;SDS011;59836;52.132;5.442;2024-01-30T05:22:54;9.77;;;5.50;;
71965;SDS011;59836;52.132;5.442;2024-01-30T05:25:21;8.55;;;4.95;;
71965;SDS011;59836;52.132;5.442;2024-01-30T05:27:48;8.63;;;4.93;;
71965;SDS011;59836;52.132;5.442;2024-01-30T05:30:15;8.33;;;5.20;;
71965;SDS011;59836;52.132;5.442;2024-01-30T05:32:42;12.63;;;5.28;;
71965;SDS011;59836;52.132;5.442;2024-01-30T05:35:09;8.85;;;5.32;;
71965;SDS011;59836;52.132;5.442;2024-01-30T05:37:36;9.00;;;5.28;;
71965;SDS011;59836;52.132;5.442;2024-01-30T05:40:02;10.43;;;5.22;;
71965;SDS011;59836;52.132;5.442;2024-01-30T05:42:29;7.97;;;4.77;;
71965;SDS011;59836;52.132;5.442;2024-01-30T05:44:56;8.93;;;5.15;;
71965;SDS011;59836;52.132;5.442;2024-01-30T05:47:23;8.75;;;5.15;;
71965;SDS011;59836;52.132;5.442;2024-01-30T05:49:50;7.53;;;4.45;;
71965;SDS011;59836;52.132;5.442;2024-01-30T05:52:16;8.55;;;5.10;;
71965;SDS011;59836;52.132;5.442;2024-01-30T05:54:45;7.87;;;4.70;;
71965;SDS011;59836;52.132;5.442;2024-01-30T05:57:11;6.30;;;4.53;;
71965;SDS011;59836;52.132;5.442;2024-01-30T05:59:38;8.10;;;4.70;;
71965;SDS011;59836;52.132;5.442;2024-01-30T06:02:07;8.40;;;5.43;;
71965;SDS011;59836;52.132;5.442;2024-01-30T06:04:34;7.40;;;4.72;;
71965;SDS011;59836;52.132;5.442;2024-01-30T06:07:01;8.20;;;4.77;;
71965;SDS011;59836;52.132;5.442;2024-01-30T06:09:28;8.25;;;4.85;;
71965;SDS011;59836;52.132;5.442;2024-01-30T06:11:55;7.80;;;5.10;;
71965;SDS011;59836;52.132;5.442;2024-01-30T06:14:21;8.70;;;5.07;;
71965;SDS011;59836;52.132;5.442;2024-01-30T06:16:48;8.13;;;5.10;;
71965;SDS011;59836;52.132;5.442;2024-01-30T06:19:15;6.40;;;4.17;;
71965;SDS011;59836;52.132;5.442;2024-01-30T06:21:42;9.70;;;5.28;;
71965;SDS011;59836;52.132;5.442;2024-01-30T06:24:08;8.23;;;4.75;;
71965;SDS011;59836;52.132;5.442;2024-01-30T06:26:35;9.98;;;5.63;;
71965;SDS011;59836;52.132;5.442;2024-01-30T06:29:02;6.68;;;4.40;;
71965;SDS011;59836;52.132;5.442;2024-01-30T06:31:28;6.87;;;4.63;;
71965;SDS011;59836;52.132;5.442;2024-01-30T06:33:55;9.07;;;5.03;;
71965;SDS011;59836;52.132;5.442;2024-01-30T06:36:22;8.85;;;4.90;;
71965;SDS011;59836;52.132;5.442;2024-01-30T06:38:48;8.35;;;4.78;;
71965;SDS011;59836;52.132;5.442;2024-01-30T06:41:15;9.63;;;5.45;;
71965;SDS011;59836;52.132;5.442;2024-01-30T06:43:42;10.27;;;5.23;;
71965;SDS011;59836;52.132;5.442;2024-01-30T06:46:08;8.63;;;4.82;;
71965;SDS011;59836;52.132;5.442;2024-01-30T06:48:35;9.15;;;4.82;;
71965;SDS011;59836;52.132;5.442;2024-01-30T06:51:01;7.88;;;4.82;;
71965;SDS011;59836;52.132;5.442;2024-01-30T06:53:28;8.43;;;4.97;;
71965;SDS011;59836;52.132;5.442;2024-01-30T06:55:55;8.83;;;5.00;;
71965;SDS011;59836;52.132;5.442;2024-01-30T06:58:21;7.07;;;4.68;;
71965;SDS011;59836;52.132;5.442;2024-01-30T07:00:48;8.82;;;4.80;;
71965;SDS011;59836;52.132;5.442;2024-01-30T07:03:14;8.27;;;5.18;;
71965;SDS011;59836;52.132;5.442;2024-01-30T07:05:41;7.13;;;4.60;;
71965;SDS011;59836;52.132;5.442;2024-01-30T07:08:08;7.63;;;5.13;;
71965;SDS011;59836;52.132;5.442;2024-01-30T07:10:34;7.32;;;4.82;;
71965;SDS011;59836;52.132;5.442;2024-01-30T07:13:01;7.95;;;4.95;;
71965;SDS011;59836;52.132;5.442;2024-01-30T07:15:28;7.85;;;5.38;;
71965;SDS011;59836;52.132;5.442;2024-01-30T07:17:55;7.78;;;4.80;;
71965;SDS011;59836;52.132;5.442;2024-01-30T07:20:21;8.63;;;4.97;;
71965;SDS011;59836;52.132;5.442;2024-01-30T07:22:48;8.85;;;4.72;;
71965;SDS011;59836;52.132;5.442;2024-01-30T07:25:15;7.68;;;5.55;;
71965;SDS011;59836;52.132;5.442;2024-01-30T07:27:43;8.90;;;4.95;;
71965;SDS011;59836;52.132;5.442;2024-01-30T07:30:10;8.68;;;5.28;;
71965;SDS011;59836;52.132;5.442;2024-01-30T07:32:36;7.07;;;4.83;;
71965;SDS011;59836;52.132;5.442;2024-01-30T07:35:03;7.90;;;5.57;;
71965;SDS011;59836;52.132;5.442;2024-01-30T07:37:34;8.80;;;5.47;;
71965;SDS011;59836;52.132;5.442;2024-01-30T07:40:02;7.78;;;4.43;;
71965;SDS011;59836;52.132;5.442;2024-01-30T07:42:30;8.52;;;5.10;;
71965;SDS011;59836;52.132;5.442;2024-01-30T07:44:56;9.40;;;5.57;;
71965;SDS011;59836;52.132;5.442;2024-01-30T07:47:23;7.72;;;4.50;;
71965;SDS011;59836;52.132;5.442;2024-01-30T07:49:49;8.55;;;5.43;;
71965;SDS011;59836;52.132;5.442;2024-01-30T07:52:17;8.82;;;4.90;;
71965;SDS011;59836;52.132;5.442;2024-01-30T07:54:43;9.50;;;5.45;;
71965;SDS011;59836;52.132;5.442;2024-01-30T07:57:10;8.93;;;4.60;;
71965;SDS011;59836;52.132;5.442;2024-01-30T07:59:37;6.45;;;4.85;;
71965;SDS011;59836;52.132;5.442;2024-01-30T08:02:03;8.77;;;5.65;;
71965;SDS011;59836;52.132;5.442;2024-01-30T08:04:30;7.78;;;4.82;;
71965;SDS011;59836;52.132;5.442;2024-01-30T08:06:56;8.13;;;5.05;;
71965;SDS011;59836;52.132;5.442;2024-01-30T08:09:23;8.73;;;4.40;;
71965;SDS011;59836;52.132;5.442;2024-01-30T08:11:50;7.85;;;4.70;;
71965;SDS011;59836;52.132;5.442;2024-01-30T08:14:17;9.20;;;5.00;;
71965;SDS011;59836;52.132;5.442;2024-01-30T08:16:44;6.43;;;4.65;;
71965;SDS011;59836;52.132;5.442;2024-01-30T08:19:10;8.45;;;4.90;;
71965;SDS011;59836;52.132;5.442;2024-01-30T08:21:37;6.77;;;5.00;;
71965;SDS011;59836;52.132;5.442;2024-01-30T08:24:05;7.72;;;4.40;;
71965;SDS011;59836;52.132;5.442;2024-01-30T08:26:32;7.93;;;4.93;;
71965;SDS011;59836;52.132;5.442;2024-01-30T08:29:00;8.30;;;4.53;;
71965;SDS011;59836;52.132;5.442;2024-01-30T08:31:28;8.85;;;4.47;;
71965;SDS011;59836;52.132;5.442;2024-01-30T08:33:55;7.17;;;4.27;;
71965;SDS011;59836;52.132;5.442;2024-01-30T08:36:22;8.50;;;4.43;;
71965;SDS011;59836;52.132;5.442;2024-01-30T08:38:48;9.40;;;4.88;;
71965;SDS011;59836;52.132;5.442;2024-01-30T08:41:15;9.60;;;4.70;;
71965;SDS011;59836;52.132;5.442;2024-01-30T08:43:42;7.38;;;4.93;;
71965;SDS011;59836;52.132;5.442;2024-01-30T08:46:08;11.00;;;4.63;;
71965;SDS011;59836;52.132;5.442;2024-01-30T08:48:35;7.07;;;4.43;;
71965;SDS011;59836;52.132;5.442;2024-01-30T08:51:02;7.57;;;4.68;;
71965;SDS011;59836;52.132;5.442;2024-01-30T08:53:29;10.90;;;4.85;;
71965;SDS011;59836;52.132;5.442;2024-01-30T08:55:56;9.18;;;5.00;;
71965;SDS011;59836;52.132;5.442;2024-01-30T08:58:25;10.87;;;4.70;;
71965;SDS011;59836;52.132;5.442;2024-01-30T09:00:52;9.98;;;4.65;;
71965;SDS011;59836;52.132;5.442;2024-01-30T09:03:19;9.90;;;4.88;;
71965;SDS011;59836;52.132;5.442;2024-01-30T09:05:45;11.85;;;4.50;;
71965;SDS011;59836;52.132;5.442;2024-01-30T09:08:12;7.97;;;4.68;;
71965;SDS011;59836;52.132;5.442;2024-01-30T09:10:39;11.13;;;4.80;;
71965;SDS011;59836;52.132;5.442;2024-01-30T09:13:05;8.52;;;4.32;;
71965;SDS011;59836;52.132;5.442;2024-01-30T09:15:32;11.02;;;4.82;;
71965;SDS011;59836;52.132;5.442;2024-01-30T09:17:59;9.60;;;4.60;;
71965;SDS011;59836;52.132;5.442;2024-01-30T09:20:25;11.82;;;5.10;;
71965;SDS011;59836;52.132;5.442;2024-01-30T09:22:52;9.53;;;4.27;;
71965;SDS011;59836;52.132;5.442;2024-01-30T09:25:18;9.50;;;4.47;;
71965;SDS011;59836;52.132;5.442;2024-01-30T09:27:46;13.32;;;5.53;;
71965;SDS011;59836;52.132;5.442;2024-01-30T09:30:13;9.70;;;5.18;;
71965;SDS011;59836;52.132;5.442;2024-01-30T09:32:40;9.27;;;4.60;;
71965;SDS011;59836;52.132;5.442;2024-01-30T09:35:07;8.27;;;4.17;;
71965;SDS011;59836;52.132;5.442;2024-01-30T09:37:34;8.68;;;4.80;;
71965;SDS011;59836;52.132;5.442;2024-01-30T09:40:01;13.85;;;5.38;;
71965;SDS011;59836;52.132;5.442;2024-01-30T09:42:28;9.95;;;5.20;;
71965;SDS011;59836;52.132;5.442;2024-01-30T09:45:04;8.88;;;5.53;;
71965;SDS011;59836;52.132;5.442;2024-01-30T09:47:32;7.77;;;4.50;;
71965;SDS011;59836;52.132;5.442;2024-01-30T09:50:09;7.47;;;4.35;;
71965;SDS011;59836;52.132;5.442;2024-01-30T09:52:40;8.57;;;4.90;;
71965;SDS011;59836;52.132;5.442;2024-01-30T09:55:08;8.63;;;4.97;;
71965;SDS011;59836;52.132;5.442;2024-01-30T09:57:35;9.13;;;4.65;;
71965;SDS011;59836;52.132;5.442;2024-01-30T10:00:03;7.03;;;4.57;;
71965;SDS011;59836;52.132;5.442;2024-01-30T10:02:33;10.25;;;5.03;;
71965;SDS011;59836;52.132;5.442;2024-01-30T10:05:00;9.65;;;4.50;;
71965;SDS011;59836;52.132;5.442;2024-01-30T10:07:27;8.57;;;4.60;;
71965;SDS011;59836;52.132;5.442;2024-01-30T10:09:54;9.10;;;4.60;;
71965;SDS011;59836;52.132;5.442;2024-01-30T10:12:23;10.87;;;4.67;;
71965;SDS011;59836;52.132;5.442;2024-01-30T10:14:51;10.18;;;4.57;;
71965;SDS011;59836;52.132;5.442;2024-01-30T10:17:18;9.18;;;4.45;;
71965;SDS011;59836;52.132;5.442;2024-01-30T10:19:58;9.77;;;4.53;;
71965;SDS011;59836;52.132;5.442;2024-01-30T10:22:25;7.65;;;4.22;;
71965;SDS011;59836;52.132;5.442;2024-01-30T10:24:52;10.47;;;4.70;;
71965;SDS011;59836;52.132;5.442;2024-01-30T10:27:24;8.85;;;4.35;;
71965;SDS011;59836;52.132;5.442;2024-01-30T10:29:52;8.52;;;4.88;;
71965;SDS011;59836;52.132;5.442;2024-01-30T10:32:19;8.20;;;4.95;;
71965;SDS011;59836;52.132;5.442;2024-01-30T10:34:46;10.40;;;5.30;;
71965;SDS011;59836;52.132;5.442;2024-01-30T10:37:13;8.97;;;4.63;;
71965;SDS011;59836;52.132;5.442;2024-01-30T10:39:43;8.65;;;5.05;;
71965;SDS011;59836;52.132;5.442;2024-01-30T10:42:12;8.90;;;4.93;;
71965;SDS011;59836;52.132;5.442;2024-01-30T10:44:44;7.45;;;4.80;;
71965;SDS011;59836;52.132;5.442;2024-01-30T10:47:26;11.15;;;5.32;;
71965;SDS011;59836;52.132;5.442;2024-01-30T10:49:54;8.30;;;4.67;;
71965;SDS011;59836;52.132;5.442;2024-01-30T10:52:22;10.18;;;5.50;;
71965;SDS011;59836;52.132;5.442;2024-01-30T10:54:53;9.57;;;5.10;;
71965;SDS011;59836;52.132;5.442;2024-01-30T10:57:30;8.70;;;4.93;;
71965;SDS011;59836;52.132;5.442;2024-01-30T11:00:00;7.80;;;4.63;;
71965;SDS011;59836;52.132;5.442;2024-01-30T11:02:31;6.50;;;4.17;;
71965;SDS011;59836;52.132;5.442;2024-01-30T11:04:59;10.52;;;3.97;;
71965;SDS011;59836;52.132;5.442;2024-01-30T11:07:27;8.73;;;4.22;;
71965;SDS011;59836;52.132;5.442;2024-01-30T11:12:27;7.88;;;4.20;;
71965;SDS011;59836;52.132;5.442;2024-01-30T11:15:03;7.40;;;4.17;;
71965;SDS011;59836;52.132;5.442;2024-01-30T11:17:41;8.48;;;4.40;;
71965;SDS011;59836;52.132;5.442;2024-01-30T11:20:15;9.38;;;4.68;;
71965;SDS011;59836;52.132;5.442;2024-01-30T11:22:44;9.13;;;4.88;;
71965;SDS011;59836;52.132;5.442;2024-01-30T11:25:13;7.65;;;4.63;;
71965;SDS011;59836;52.132;5.442;2024-01-30T11:27:44;7.40;;;4.23;;
71965;SDS011;59836;52.132;5.442;2024-01-30T11:30:11;7.55;;;4.45;;
71965;SDS011;59836;52.132;5.442;2024-01-30T11:32:59;8.10;;;4.30;;
71965;SDS011;59836;52.132;5.442;2024-01-30T11:35:33;6.90;;;4.00;;
71965;SDS011;59836;52.132;5.442;2024-01-30T11:38:09;7.07;;;3.80;;
71965;SDS011;59836;52.132;5.442;2024-01-30T11:40:37;7.10;;;3.17;;
71965;SDS011;59836;52.132;5.442;2024-01-30T11:43:06;6.63;;;2.53;;
71965;SDS011;59836;52.132;5.442;2024-01-30T11:45:34;4.10;;;1.70;;
71965;SDS011;59836;52.132;5.442;2024-01-30T11:48:02;4.03;;;1.83;;
71965;SDS011;59836;52.132;5.442;2024-01-30T11:50:31;2.88;;;1.73;;
71965;SDS011;59836;52.132;5.442;2024-01-30T11:53:01;3.83;;;1.40;;
71965;SDS011;59836;52.132;5.442;2024-01-30T11:55:29;3.33;;;1.25;;
71965;SDS011;59836;52.132;5.442;2024-01-30T11:58:00;5.93;;;1.20;;
71965;SDS011;59836;52.132;5.442;2024-01-30T12:00:27;5.38;;;1.17;;
71965;SDS011;59836;52.132;5.442;2024-01-30T12:02:55;3.17;;;1.08;;
71965;SDS011;59836;52.132;5.442;2024-01-30T12:05:23;3.13;;;0.80;;
71965;SDS011;59836;52.132;5.442;2024-01-30T12:07:51;3.83;;;0.80;;
71965;SDS011;59836;52.132;5.442;2024-01-30T12:10:18;3.58;;;0.95;;
71965;SDS011;59836;52.132;5.442;2024-01-30T12:12:45;3.63;;;0.80;;
71965;SDS011;59836;52.132;5.442;2024-01-30T12:15:13;3.83;;;0.75;;
71965;SDS011;59836;52.132;5.442;2024-01-30T12:17:40;3.87;;;1.20;;
71965;SDS011;59836;52.132;5.442;2024-01-30T12:22:36;2.88;;;0.77;;
71965;SDS011;59836;52.132;5.442;2024-01-30T12:25:10;3.63;;;0.95;;
71965;SDS011;59836;52.132;5.442;2024-01-30T12:27:39;4.70;;;1.35;;
71965;SDS011;59836;52.132;5.442;2024-01-30T12:30:09;3.30;;;1.60;;
71965;SDS011;59836;52.132;5.442;2024-01-30T12:32:39;3.80;;;1.65;;
71965;SDS011;59836;52.132;5.442;2024-01-30T12:35:07;5.47;;;1.90;;
71965;SDS011;59836;52.132;5.442;2024-01-30T12:37:38;5.95;;;1.50;;
71965;SDS011;59836;52.132;5.442;2024-01-30T12:40:09;5.18;;;1.77;;
71965;SDS011;59836;52.132;5.442;2024-01-30T12:42:37;3.57;;;1.60;;
71965;SDS011;59836;52.132;5.442;2024-01-30T12:45:04;5.85;;;1.92;;
71965;SDS011;59836;52.132;5.442;2024-01-30T12:47:31;4.25;;;1.58;;
71965;SDS011;59836;52.132;5.442;2024-01-30T12:49:58;3.72;;;1.30;;
71965;SDS011;59836;52.132;5.442;2024-01-30T12:52:25;4.72;;;1.95;;
71965;SDS011;59836;52.132;5.442;2024-01-30T12:54:52;2.17;;;1.20;;
71965;SDS011;59836;52.132;5.442;2024-01-30T12:57:19;3.92;;;1.38;;
71965;SDS011;59836;52.132;5.442;2024-01-30T12:59:46;3.90;;;1.65;;
71965;SDS011;59836;52.132;5.442;2024-01-30T13:02:13;2.88;;;1.10;;
71965;SDS011;59836;52.132;5.442;2024-01-30T13:04:41;5.18;;;1.70;;
71965;SDS011;59836;52.132;5.442;2024-01-30T13:07:10;3.90;;;1.30;;
71965;SDS011;59836;52.132;5.442;2024-01-30T13:09:37;3.58;;;1.40;;
71965;SDS011;59836;52.132;5.442;2024-01-30T13:12:04;5.20;;;1.67;;
71965;SDS011;59836;52.132;5.442;2024-01-30T13:14:31;4.90;;;1.48;;
71965;SDS011;59836;52.132;5.442;2024-01-30T13:16:57;4.07;;;1.95;;
71965;SDS011;59836;52.132;5.442;2024-01-30T13:19:24;2.53;;;0.80;;
71965;SDS011;59836;52.132;5.442;2024-01-30T13:21:51;1.83;;;0.70;;
71965;SDS011;59836;52.132;5.442;2024-01-30T13:24:18;2.08;;;1.00;;
71965;SDS011;59836;52.132;5.442;2024-01-30T13:26:47;2.67;;;1.10;;
71965;SDS011;59836;52.132;5.442;2024-01-30T13:29:15;2.95;;;1.02;;
71965;SDS011;59836;52.132;5.442;2024-01-30T13:31:41;3.23;;;0.80;;
71965;SDS011;59836;52.132;5.442;2024-01-30T13:34:10;0.95;;;0.50;;
71965;SDS011;59836;52.132;5.442;2024-01-30T13:36:37;1.45;;;0.50;;
71965;SDS011;59836;52.132;5.442;2024-01-30T13:39:04;1.35;;;0.60;;
71965;SDS011;59836;52.132;5.442;2024-01-30T13:41:36;4.22;;;0.85;;
71965;SDS011;59836;52.132;5.442;2024-01-30T13:44:03;5.57;;;0.60;;
71965;SDS011;59836;52.132;5.442;2024-01-30T13:46:30;3.17;;;1.15;;
71965;SDS011;59836;52.132;5.442;2024-01-30T13:48:57;3.30;;;0.57;;
71965;SDS011;59836;52.132;5.442;2024-01-30T13:51:25;2.83;;;0.75;;
71965;SDS011;59836;52.132;5.442;2024-01-30T13:53:51;2.22;;;0.55;;
71965;SDS011;59836;52.132;5.442;2024-01-30T13:56:18;2.67;;;0.67;;
71965;SDS011;59836;52.132;5.442;2024-01-30T13:58:47;1.90;;;0.70;;
71965;SDS011;59836;52.132;5.442;2024-01-30T14:01:14;1.92;;;0.80;;
71965;SDS011;59836;52.132;5.442;2024-01-30T14:03:41;2.38;;;0.52;;
71965;SDS011;59836;52.132;5.442;2024-01-30T14:06:08;2.20;;;1.02;;
71965;SDS011;59836;52.132;5.442;2024-01-30T14:08:34;3.47;;;0.70;;
71965;SDS011;59836;52.132;5.442;2024-01-30T14:11:01;1.88;;;0.50;;
71965;SDS011;59836;52.132;5.442;2024-01-30T14:13:28;2.95;;;0.73;;
71965;SDS011;59836;52.132;5.442;2024-01-30T14:15:55;1.50;;;0.70;;
71965;SDS011;59836;52.132;5.442;2024-01-30T14:18:22;3.45;;;0.85;;
71965;SDS011;59836;52.132;5.442;2024-01-30T14:20:48;3.13;;;0.67;;
71965;SDS011;59836;52.132;5.442;2024-01-30T14:23:16;1.50;;;0.60;;
71965;SDS011;59836;52.132;5.442;2024-01-30T14:25:43;2.13;;;0.57;;
71965;SDS011;59836;52.132;5.442;2024-01-30T14:28:10;4.03;;;0.70;;
71965;SDS011;59836;52.132;5.442;2024-01-30T14:30:37;1.48;;;0.68;;
71965;SDS011;59836;52.132;5.442;2024-01-30T14:33:04;3.67;;;0.50;;
71965;SDS011;59836;52.132;5.442;2024-01-30T14:35:30;3.08;;;0.68;;
71965;SDS011;59836;52.132;5.442;2024-01-30T14:37:57;1.67;;;0.50;;
71965;SDS011;59836;52.132;5.442;2024-01-30T14:40:24;1.38;;;0.50;;
71965;SDS011;59836;52.132;5.442;2024-01-30T14:42:50;1.95;;;0.77;;
71965;SDS011;59836;52.132;5.442;2024-01-30T14:45:17;3.03;;;0.67;;
71965;SDS011;59836;52.132;5.442;2024-01-30T14:47:44;2.25;;;0.60;;
71965;SDS011;59836;52.132;5.442;2024-01-30T14:50:11;3.38;;;0.70;;
71965;SDS011;59836;52.132;5.442;2024-01-30T14:52:38;3.28;;;0.65;;
71965;SDS011;59836;52.132;5.442;2024-01-30T14:55:06;1.95;;;1.27;;